Carcroft, United Kingdom
Current Conditions -  °F | °C
As of 11:20 PM on Sunday 21 Dec 2014 (Local Time) from EGCN Reporting Station
Broken Clouds Broken Clouds  
Wind Chill: 57°   Ceiling: 3600
Heat Index: 57°   Visibility: 6mi
Dew Point: 50°   Wind: 25mph
Humidity: 77%   Direction: 230°SW
Pressure: 29.91"   Gusts: NA
Location:  53.58°N, 1.18°W
Report Text: EGCN 212320Z 23022KT 9999 SCT031 BKN036 14/10 Q1013
Loading
Personal Weather Stations






























Interactive Weather Map New forecast layout! Learn more

10-Day Weather Forecast

Advertisements
Track Severe Weather on mobile